Time;durP1;ratioP1;P1;durP2;ratioP2;P2;SDS_P1;SDS_P2;PMS_P1;PMS_P2;Temp;Humidity;BMP_temperature;BMP_pressure;BME280_temperature;BME280_humidity;BME280_pressure;Samples;Min_cycle;Max_cycle;Signal;HPM_P1;HPM_P2
2024/01/20 00:00:04;;;;;;;30.90;18.70;;;;;;;;;;5009984;28;20538;-68
2024/01/20 00:02:29;;;;;;;31.20;18.27;;;;;;;;;;5001104;28;20176;-68
2024/01/20 00:04:55;;;;;;;36.77;18.50;;;;;;;;;;5013051;28;20183;-68
2024/01/20 00:07:20;;;;;;;33.57;17.87;;;;;;;;;;5009173;28;20190;-69
2024/01/20 00:09:46;;;;;;;32.27;18.73;;;;;;;;;;4994366;28;20585;-68
2024/01/20 00:12:11;;;;;;;34.20;18.70;;;;;;;;;;4993671;28;20206;-68
2024/01/20 00:14:36;;;;;;;34.40;18.33;;;;;;;;;;5006885;28;20186;-69
2024/01/20 00:17:02;;;;;;;35.30;18.53;;;;;;;;;;5005869;28;20187;-68
2024/01/20 00:19:27;;;;;;;33.83;17.97;;;;;;;;;;4985892;28;20665;-68
2024/01/20 00:21:52;;;;;;;35.57;19.37;;;;;;;;;;5004906;28;20206;-68
2024/01/20 00:24:17;;;;;;;35.07;18.23;;;;;;;;;;5005286;28;20781;-69
2024/01/20 00:26:42;;;;;;;35.37;19.80;;;;;;;;;;5013978;28;20189;-69
2024/01/20 00:29:08;;;;;;;40.10;19.07;;;;;;;;;;4995963;28;20207;-69
2024/01/20 00:31:33;;;;;;;39.00;20.03;;;;;;;;;;5008503;28;20198;-67
2024/01/20 00:33:58;;;;;;;37.10;20.07;;;;;;;;;;5011221;28;20547;-68
2024/01/20 00:36:23;;;;;;;35.43;18.07;;;;;;;;;;4997530;28;20183;-66
2024/01/20 00:38:49;;;;;;;41.83;20.03;;;;;;;;;;5008715;28;20179;-68
2024/01/20 00:41:14;;;;;;;39.10;19.67;;;;;;;;;;5007387;28;20199;-66
2024/01/20 00:43:39;;;;;;;35.97;19.13;;;;;;;;;;4989352;28;20186;-67
2024/01/20 00:46:04;;;;;;;45.73;19.63;;;;;;;;;;5003493;28;20601;-68
2024/01/20 00:48:29;;;;;;;45.97;21.07;;;;;;;;;;5008708;28;20646;-67
2024/01/20 00:50:55;;;;;;;40.20;19.90;;;;;;;;;;5009806;28;20183;-68
2024/01/20 00:53:20;;;;;;;37.30;20.13;;;;;;;;;;4990776;28;20203;-68
2024/01/20 00:55:45;;;;;;;43.53;20.43;;;;;;;;;;5009947;28;20238;-68
2024/01/20 00:58:11;;;;;;;43.57;20.90;;;;;;;;;;5009785;28;20604;-68
2024/01/20 01:00:37;;;;;;;37.77;19.67;;;;;;;;;;5010181;28;20199;-67
2024/01/20 01:03:02;;;;;;;46.00;20.83;;;;;;;;;;5011002;28;20521;-67
2024/01/20 01:05:27;;;;;;;42.47;20.43;;;;;;;;;;5009937;28;20194;-68
2024/01/20 01:07:53;;;;;;;50.70;22.97;;;;;;;;;;5009669;28;20214;-68
2024/01/20 01:10:18;;;;;;;46.77;20.90;;;;;;;;;;4992126;28;20207;-68
2024/01/20 01:12:43;;;;;;;49.37;22.23;;;;;;;;;;4995256;28;20236;-68
2024/01/20 01:15:08;;;;;;;46.73;20.03;;;;;;;;;;5011540;28;20198;-69
2024/01/20 01:17:34;;;;;;;44.87;21.90;;;;;;;;;;5010182;28;20171;-68
2024/01/20 01:19:59;;;;;;;44.40;19.87;;;;;;;;;;4983811;28;20309;-67
2024/01/20 01:22:24;;;;;;;54.80;21.93;;;;;;;;;;5010741;28;20676;-68
2024/01/20 01:24:49;;;;;;;46.67;20.73;;;;;;;;;;5010460;28;20318;-67
2024/01/20 01:27:14;;;;;;;44.67;22.80;;;;;;;;;;4995123;28;20228;-67
2024/01/20 01:29:40;;;;;;;50.20;22.07;;;;;;;;;;5011414;28;20210;-67
2024/01/20 01:32:05;;;;;;;51.27;23.23;;;;;;;;;;5010270;28;20195;-68
2024/01/20 01:34:30;;;;;;;50.43;22.23;;;;;;;;;;4994411;28;20546;-68
2024/01/20 01:36:55;;;;;;;48.90;22.53;;;;;;;;;;5011665;28;20179;-68
2024/01/20 01:39:21;;;;;;;51.70;21.53;;;;;;;;;;4992592;28;20179;-68
2024/01/20 01:41:46;;;;;;;55.50;22.03;;;;;;;;;;5005390;28;20202;-67
2024/01/20 01:44:12;;;;;;;53.13;21.80;;;;;;;;;;4994686;28;20676;-67
2024/01/20 01:46:37;;;;;;;49.43;20.93;;;;;;;;;;5012176;28;20185;-69
2024/01/20 01:49:03;;;;;;;49.10;22.67;;;;;;;;;;4988591;28;20210;-68
2024/01/20 01:51:28;;;;;;;47.80;21.67;;;;;;;;;;4986627;28;20556;-68
2024/01/20 01:53:54;;;;;;;41.63;19.80;;;;;;;;;;5009966;28;20221;-68
2024/01/20 01:56:19;;;;;;;59.93;22.93;;;;;;;;;;4988171;28;20230;-68
2024/01/20 01:58:45;;;;;;;47.90;22.13;;;;;;;;;;5007302;28;20182;-68
2024/01/20 02:01:10;;;;;;;47.40;21.30;;;;;;;;;;5005525;28;20226;-68
2024/01/20 02:03:35;;;;;;;54.07;21.73;;;;;;;;;;5008580;28;20667;-68
2024/01/20 02:06:01;;;;;;;42.90;20.47;;;;;;;;;;5009088;28;20317;-68
2024/01/20 02:08:27;;;;;;;47.30;20.03;;;;;;;;;;4998147;28;20225;-68
2024/01/20 02:10:52;;;;;;;50.10;20.63;;;;;;;;;;4989617;28;20222;-67
2024/01/20 02:13:18;;;;;;;52.63;22.80;;;;;;;;;;5006293;28;20182;-69
2024/01/20 02:15:44;;;;;;;43.83;20.77;;;;;;;;;;4996179;28;20624;-70
2024/01/20 02:18:09;;;;;;;46.57;21.23;;;;;;;;;;5007984;28;20183;-68
2024/01/20 02:20:34;;;;;;;54.60;21.60;;;;;;;;;;5011188;28;20595;-68
2024/01/20 02:23:00;;;;;;;42.67;20.67;;;;;;;;;;5011097;28;20666;-69
2024/01/20 02:25:25;;;;;;;50.30;21.70;;;;;;;;;;5009641;28;20189;-69
2024/01/20 02:27:50;;;;;;;50.07;21.67;;;;;;;;;;5008854;28;20270;-68
2024/01/20 02:30:15;;;;;;;48.67;20.73;;;;;;;;;;5014425;28;20215;-69
2024/01/20 02:32:41;;;;;;;44.13;20.23;;;;;;;;;;5010888;28;20182;-68
2024/01/20 02:35:06;;;;;;;53.33;21.47;;;;;;;;;;5003745;28;20635;-69
2024/01/20 02:37:32;;;;;;;54.83;23.40;;;;;;;;;;5008999;28;20187;-69
2024/01/20 02:39:57;;;;;;;44.27;19.53;;;;;;;;;;5008730;28;20268;-71
2024/01/20 02:42:23;;;;;;;50.40;22.13;;;;;;;;;;5011928;28;20186;-69
2024/01/20 02:44:48;;;;;;;51.20;21.30;;;;;;;;;;4990433;28;20197;-69
2024/01/20 02:47:13;;;;;;;52.13;20.30;;;;;;;;;;5008981;28;20194;-69
2024/01/20 02:49:38;;;;;;;49.73;22.70;;;;;;;;;;5008545;28;20687;-68
2024/01/20 02:52:04;;;;;;;46.17;21.17;;;;;;;;;;5006093;28;20214;-69
2024/01/20 02:54:29;;;;;;;55.27;22.53;;;;;;;;;;5005077;28;20685;-69
2024/01/20 02:56:54;;;;;;;45.40;20.13;;;;;;;;;;5004393;28;20682;-68
2024/01/20 02:59:20;;;;;;;43.93;19.60;;;;;;;;;;5013697;28;20274;-69
2024/01/20 03:01:45;;;;;;;46.50;21.00;;;;;;;;;;5009907;28;20203;-69
2024/01/20 03:04:10;;;;;;;40.03;19.33;;;;;;;;;;5010656;28;20563;-69
2024/01/20 03:06:35;;;;;;;49.60;20.43;;;;;;;;;;4989698;28;20181;-69
2024/01/20 03:09:00;;;;;;;46.37;20.17;;;;;;;;;;5008805;28;20217;-68
2024/01/20 03:11:26;;;;;;;43.47;19.40;;;;;;;;;;5005041;28;20206;-69
2024/01/20 03:13:51;;;;;;;43.00;19.40;;;;;;;;;;4989719;28;20176;-68
2024/01/20 03:16:16;;;;;;;47.93;21.03;;;;;;;;;;5012855;28;20175;-69
2024/01/20 03:18:41;;;;;;;46.47;20.27;;;;;;;;;;5012142;28;20179;-68
2024/01/20 03:21:07;;;;;;;46.53;20.73;;;;;;;;;;5009755;28;20664;-68
2024/01/20 03:23:32;;;;;;;37.50;17.60;;;;;;;;;;5004824;28;20183;-68
2024/01/20 03:25:57;;;;;;;49.40;20.80;;;;;;;;;;5007390;28;20175;-67
2024/01/20 03:28:22;;;;;;;38.77;20.23;;;;;;;;;;5009841;28;20181;-68
2024/01/20 03:30:48;;;;;;;47.30;19.17;;;;;;;;;;5002782;28;20313;-66
2024/01/20 03:33:13;;;;;;;41.13;18.63;;;;;;;;;;5005984;28;20175;-68
2024/01/20 03:35:38;;;;;;;46.17;19.30;;;;;;;;;;5007027;28;20186;-66
2024/01/20 03:38:03;;;;;;;44.50;19.40;;;;;;;;;;5008576;28;20542;-68
2024/01/20 03:40:29;;;;;;;45.23;19.87;;;;;;;;;;5008464;28;20210;-68
2024/01/20 03:42:54;;;;;;;41.60;19.87;;;;;;;;;;5009795;28;20210;-68
2024/01/20 03:45:19;;;;;;;39.57;18.90;;;;;;;;;;5008400;28;20596;-68
2024/01/20 03:47:44;;;;;;;38.13;19.27;;;;;;;;;;5009131;28;20186;-68
2024/01/20 03:50:09;;;;;;;41.87;18.00;;;;;;;;;;5004956;28;20213;-68
2024/01/20 03:52:35;;;;;;;42.17;21.00;;;;;;;;;;5005750;28;20171;-67
2024/01/20 03:55:00;;;;;;;36.57;17.23;;;;;;;;;;4987851;28;20186;-68
2024/01/20 03:57:25;;;;;;;43.27;19.33;;;;;;;;;;5013684;28;20171;-67
2024/01/20 03:59:50;;;;;;;47.33;17.10;;;;;;;;;;5008110;28;20179;-68
2024/01/20 04:02:16;;;;;;;47.83;18.87;;;;;;;;;;5003524;28;20206;-68
2024/01/20 04:04:41;;;;;;;44.37;18.90;;;;;;;;;;5007401;28;20224;-68
2024/01/20 04:07:06;;;;;;;41.60;17.43;;;;;;;;;;5004290;28;20171;-68
2024/01/20 04:09:31;;;;;;;44.53;18.70;;;;;;;;;;5009244;28;20555;-68
2024/01/20 04:11:56;;;;;;;39.53;18.07;;;;;;;;;;4991752;28;20253;-68
2024/01/20 04:14:22;;;;;;;47.60;21.33;;;;;;;;;;5007594;28;20206;-68
2024/01/20 04:16:47;;;;;;;43.63;19.60;;;;;;;;;;5012019;28;20261;-68
2024/01/20 04:19:12;;;;;;;45.13;18.63;;;;;;;;;;5008202;28;20722;-66
2024/01/20 04:21:37;;;;;;;47.07;18.70;;;;;;;;;;4990724;28;20265;-68
2024/01/20 04:24:03;;;;;;;35.50;16.90;;;;;;;;;;5003092;28;20183;-67
2024/01/20 04:26:29;;;;;;;42.50;19.67;;;;;;;;;;5006645;28;20199;-67
2024/01/20 04:28:54;;;;;;;39.53;17.37;;;;;;;;;;5008996;28;20187;-68
2024/01/20 04:31:19;;;;;;;37.73;17.27;;;;;;;;;;5008290;28;20225;-69
2024/01/20 04:33:44;;;;;;;40.33;17.37;;;;;;;;;;5007954;28;20227;-69
2024/01/20 04:36:10;;;;;;;43.27;18.50;;;;;;;;;;5006745;28;20214;-69
2024/01/20 04:38:35;;;;;;;43.07;18.83;;;;;;;;;;5008825;28;20266;-69
2024/01/20 04:41:00;;;;;;;38.20;17.60;;;;;;;;;;5008651;28;20712;-69
2024/01/20 04:43:27;;;;;;;43.97;19.37;;;;;;;;;;5003527;28;20187;-69
2024/01/20 04:45:52;;;;;;;43.20;18.27;;;;;;;;;;5007368;28;20663;-69
2024/01/20 04:48:17;;;;;;;41.37;17.50;;;;;;;;;;4991082;28;20210;-69
2024/01/20 04:50:42;;;;;;;37.87;17.10;;;;;;;;;;4993816;28;20276;-69
2024/01/20 04:53:07;;;;;;;42.37;17.73;;;;;;;;;;4993724;28;20271;-69
2024/01/20 04:55:33;;;;;;;41.20;18.33;;;;;;;;;;5012903;28;20178;-69
2024/01/20 04:57:58;;;;;;;43.10;18.07;;;;;;;;;;5011587;28;20179;-68
2024/01/20 05:00:23;;;;;;;37.37;17.40;;;;;;;;;;5010979;28;20218;-67
2024/01/20 05:02:48;;;;;;;42.73;17.77;;;;;;;;;;5003078;28;20221;-68
2024/01/20 05:05:13;;;;;;;37.53;16.93;;;;;;;;;;5012702;28;20595;-69
2024/01/20 05:07:39;;;;;;;47.57;19.37;;;;;;;;;;5010264;28;20221;-67
2024/01/20 05:10:04;;;;;;;40.93;18.37;;;;;;;;;;5012845;28;20198;-67
2024/01/20 05:12:30;;;;;;;41.67;17.90;;;;;;;;;;5012263;28;20205;-67
2024/01/20 05:14:55;;;;;;;50.03;20.37;;;;;;;;;;5012412;28;20518;-68
2024/01/20 05:17:20;;;;;;;44.47;20.07;;;;;;;;;;5010915;28;20655;-68
2024/01/20 05:19:46;;;;;;;45.80;18.77;;;;;;;;;;5008695;28;20206;-67
2024/01/20 05:22:11;;;;;;;47.47;18.73;;;;;;;;;;5003257;28;20265;-68
2024/01/20 05:24:36;;;;;;;41.20;17.57;;;;;;;;;;5011401;28;20527;-68
2024/01/20 05:27:01;;;;;;;43.70;19.10;;;;;;;;;;4992620;28;20194;-67
2024/01/20 05:29:27;;;;;;;38.60;16.27;;;;;;;;;;5012560;28;20199;-68
2024/01/20 05:31:52;;;;;;;41.57;18.03;;;;;;;;;;5011871;28;20709;-67
2024/01/20 05:34:17;;;;;;;42.60;17.27;;;;;;;;;;4994375;28;20187;-68
2024/01/20 05:36:42;;;;;;;47.17;17.90;;;;;;;;;;5009499;28;20182;-68
2024/01/20 05:39:07;;;;;;;46.00;18.20;;;;;;;;;;5009081;28;20285;-68
2024/01/20 05:41:33;;;;;;;44.73;18.97;;;;;;;;;;5001358;28;20207;-68
2024/01/20 05:43:58;;;;;;;40.77;18.47;;;;;;;;;;5009481;28;20183;-68
2024/01/20 05:46:23;;;;;;;44.50;19.87;;;;;;;;;;4993856;28;20186;-68
2024/01/20 05:48:49;;;;;;;47.40;18.17;;;;;;;;;;4994172;28;20183;-68
2024/01/20 05:51:14;;;;;;;41.97;18.37;;;;;;;;;;5010834;28;20683;-68
2024/01/20 05:53:40;;;;;;;46.60;18.63;;;;;;;;;;5010941;28;20233;-68
2024/01/20 05:56:05;;;;;;;45.13;19.27;;;;;;;;;;5010458;28;20672;-67
2024/01/20 05:58:30;;;;;;;46.50;18.73;;;;;;;;;;5005499;28;20187;-67
2024/01/20 06:00:55;;;;;;;46.93;19.30;;;;;;;;;;5006570;28;20194;-68
2024/01/20 06:03:21;;;;;;;40.30;17.60;;;;;;;;;;5008871;28;20674;-68
2024/01/20 06:05:46;;;;;;;41.30;16.80;;;;;;;;;;5010881;28;20237;-67
2024/01/20 06:08:11;;;;;;;48.57;20.30;;;;;;;;;;4993942;28;20194;-67
2024/01/20 06:10:36;;;;;;;44.43;19.80;;;;;;;;;;5002076;28;20232;-67
2024/01/20 06:13:02;;;;;;;43.00;19.77;;;;;;;;;;5005482;28;20175;-67
2024/01/20 06:15:27;;;;;;;50.77;18.90;;;;;;;;;;5011278;28;20171;-67
2024/01/20 06:17:53;;;;;;;45.20;18.53;;;;;;;;;;5010577;28;20190;-66
2024/01/20 06:20:18;;;;;;;44.40;17.00;;;;;;;;;;5009908;28;20199;-66
2024/01/20 06:22:44;;;;;;;45.93;19.60;;;;;;;;;;5011366;28;20187;-68
2024/01/20 06:25:09;;;;;;;42.27;19.30;;;;;;;;;;5010658;28;20266;-67
2024/01/20 06:27:34;;;;;;;43.33;18.17;;;;;;;;;;5010026;28;20171;-67
2024/01/20 06:29:59;;;;;;;49.23;17.97;;;;;;;;;;5008224;28;20260;-68
2024/01/20 06:32:24;;;;;;;40.30;16.67;;;;;;;;;;5002942;28;20183;-68
2024/01/20 06:34:50;;;;;;;47.17;20.33;;;;;;;;;;5009717;28;20639;-67
2024/01/20 06:37:15;;;;;;;40.33;18.10;;;;;;;;;;5010986;28;20654;-66
2024/01/20 06:39:41;;;;;;;44.40;17.00;;;;;;;;;;5011112;28;20187;-67
2024/01/20 06:42:06;;;;;;;43.43;18.90;;;;;;;;;;5010213;28;20198;-65
2024/01/20 06:44:31;;;;;;;40.37;17.30;;;;;;;;;;4990072;28;20179;-68
2024/01/20 06:46:57;;;;;;;38.73;17.47;;;;;;;;;;5010476;28;20257;-68
2024/01/20 06:49:22;;;;;;;41.40;18.40;;;;;;;;;;5009921;28;20207;-68
2024/01/20 06:51:48;;;;;;;47.50;18.33;;;;;;;;;;5002383;28;20558;-68
2024/01/20 06:54:13;;;;;;;45.33;17.37;;;;;;;;;;5007735;28;20178;-68
2024/01/20 06:56:38;;;;;;;43.70;18.30;;;;;;;;;;5010259;28;20237;-67
2024/01/20 06:59:03;;;;;;;44.97;17.63;;;;;;;;;;5009400;28;20178;-68
2024/01/20 07:01:28;;;;;;;42.70;17.30;;;;;;;;;;4999616;28;20207;-67
2024/01/20 07:03:54;;;;;;;41.90;18.17;;;;;;;;;;5005567;28;20197;-68
2024/01/20 07:06:23;;;;;;;52.07;20.43;;;;;;;;;;5009556;28;20621;-68
2024/01/20 07:08:48;;;;;;;45.07;17.73;;;;;;;;;;4988997;28;20185;-68
2024/01/20 07:11:13;;;;;;;44.77;17.67;;;;;;;;;;4992614;28;20198;-68
2024/01/20 07:13:39;;;;;;;47.20;18.33;;;;;;;;;;5010753;28;20171;-68
2024/01/20 07:16:08;;;;;;;50.17;18.40;;;;;;;;;;5011111;28;20709;-68
2024/01/20 07:18:33;;;;;;;55.60;18.27;;;;;;;;;;4987503;28;20187;-67
2024/01/20 07:20:58;;;;;;;43.37;17.40;;;;;;;;;;4990616;28;20764;-68
2024/01/20 07:23:23;;;;;;;47.70;17.97;;;;;;;;;;5009862;28;20229;-68
2024/01/20 07:25:49;;;;;;;42.60;17.27;;;;;;;;;;5010427;28;20175;-68
2024/01/20 07:28:14;;;;;;;47.00;18.73;;;;;;;;;;5009261;28;20262;-67
2024/01/20 07:30:39;;;;;;;44.53;19.10;;;;;;;;;;5010344;28;20575;-68
2024/01/20 07:33:04;;;;;;;40.77;16.50;;;;;;;;;;5010587;28;20183;-68
2024/01/20 07:35:29;;;;;;;44.83;19.03;;;;;;;;;;5010408;28;20190;-68
2024/01/20 07:37:55;;;;;;;42.73;18.20;;;;;;;;;;4988285;28;20214;-68
2024/01/20 07:40:20;;;;;;;43.87;16.20;;;;;;;;;;5002000;28;20199;-67
2024/01/20 07:42:45;;;;;;;38.83;18.43;;;;;;;;;;5008632;28;20644;-68
2024/01/20 07:45:10;;;;;;;49.37;18.90;;;;;;;;;;5008836;28;20750;-68
2024/01/20 07:47:36;;;;;;;45.03;17.17;;;;;;;;;;5009526;28;20186;-68
2024/01/20 07:50:01;;;;;;;46.80;18.70;;;;;;;;;;5007742;28;20206;-67
2024/01/20 07:52:26;;;;;;;47.33;19.10;;;;;;;;;;5010367;28;20182;-68
2024/01/20 07:54:51;;;;;;;48.63;19.30;;;;;;;;;;5007698;28;20262;-67
2024/01/20 07:57:16;;;;;;;47.93;19.13;;;;;;;;;;5009210;28;20182;-68
2024/01/20 07:59:42;;;;;;;53.37;20.00;;;;;;;;;;5000603;28;20665;-67
2024/01/20 08:02:07;;;;;;;49.63;18.67;;;;;;;;;;5006310;28;20199;-68
2024/01/20 08:04:32;;;;;;;44.67;19.17;;;;;;;;;;5009047;28;20187;-68
2024/01/20 08:06:58;;;;;;;52.93;19.77;;;;;;;;;;5006724;28;20355;-67
2024/01/20 08:09:23;;;;;;;50.50;18.13;;;;;;;;;;5007633;28;20198;-68
2024/01/20 08:11:48;;;;;;;41.37;17.40;;;;;;;;;;5003264;28;20783;-68
2024/01/20 08:14:13;;;;;;;47.43;19.50;;;;;;;;;;4995777;28;20175;-68
2024/01/20 08:16:39;;;;;;;51.50;20.43;;;;;;;;;;5007596;28;20179;-68
2024/01/20 08:19:04;;;;;;;48.07;19.43;;;;;;;;;;5009321;28;20662;-66
2024/01/20 08:21:29;;;;;;;49.03;19.03;;;;;;;;;;5028092;23;20229;-69
2024/01/20 08:23:56;;;;;;;50.30;18.73;;;;;;;;;;5027255;28;20194;-71
2024/01/20 08:26:21;;;;;;;47.97;19.97;;;;;;;;;;5031820;28;20247;-70
2024/01/20 08:28:46;;;;;;;52.27;20.27;;;;;;;;;;5031454;28;20575;-70
2024/01/20 08:31:11;;;;;;;53.30;21.40;;;;;;;;;;5031700;28;20292;-69
2024/01/20 08:33:36;;;;;;;43.57;19.80;;;;;;;;;;5021179;28;20289;-70
2024/01/20 08:36:02;;;;;;;49.63;20.70;;;;;;;;;;5013258;28;20266;-70
2024/01/20 08:38:27;;;;;;;44.33;19.33;;;;;;;;;;5024001;28;20189;-70
2024/01/20 08:40:52;;;;;;;47.10;19.83;;;;;;;;;;5022458;28;20621;-70
2024/01/20 08:43:17;;;;;;;50.73;20.10;;;;;;;;;;5030230;28;20182;-70
2024/01/20 08:45:43;;;;;;;50.83;19.67;;;;;;;;;;5025656;28;20186;-70
2024/01/20 08:48:08;;;;;;;43.77;19.57;;;;;;;;;;5026814;28;20193;-71
2024/01/20 08:50:34;;;;;;;48.70;20.03;;;;;;;;;;5033439;28;20210;-71
2024/01/20 08:52:59;;;;;;;45.77;19.17;;;;;;;;;;5031961;28;20182;-70
2024/01/20 08:55:24;;;;;;;51.47;20.67;;;;;;;;;;5032216;28;20199;-71
2024/01/20 08:57:49;;;;;;;54.47;20.63;;;;;;;;;;5031634;28;20179;-70
2024/01/20 09:00:16;;;;;;;47.00;19.63;;;;;;;;;;5032595;28;20174;-70
2024/01/20 09:02:42;;;;;;;40.60;17.63;;;;;;;;;;5034335;28;20685;-69
2024/01/20 09:05:07;;;;;;;44.37;19.63;;;;;;;;;;5002946;28;20269;-70
2024/01/20 09:07:32;;;;;;;48.37;18.97;;;;;;;;;;5016119;28;20181;-69
2024/01/20 09:09:57;;;;;;;40.17;19.53;;;;;;;;;;5005607;28;20209;-70
2024/01/20 09:12:22;;;;;;;44.23;19.27;;;;;;;;;;5030226;28;20193;-70
2024/01/20 09:14:48;;;;;;;42.67;19.00;;;;;;;;;;5023300;28;20174;-70
2024/01/20 09:17:13;;;;;;;38.50;17.50;;;;;;;;;;5007921;28;20658;-68
2024/01/20 09:19:38;;;;;;;35.90;19.07;;;;;;;;;;5030468;28;20190;-70
2024/01/20 09:22:03;;;;;;;48.53;19.53;;;;;;;;;;5036469;28;20278;-70
2024/01/20 09:24:29;;;;;;;42.67;19.53;;;;;;;;;;5035384;28;20189;-70
2024/01/20 09:26:54;;;;;;;40.47;17.77;;;;;;;;;;5031762;28;20571;-70
2024/01/20 09:29:19;;;;;;;44.53;16.90;;;;;;;;;;5011705;28;20206;-70
2024/01/20 09:31:45;;;;;;;44.60;18.10;;;;;;;;;;5023529;28;20241;-71
2024/01/20 09:34:10;;;;;;;41.37;18.37;;;;;;;;;;5018757;28;20680;-70
2024/01/20 09:36:36;;;;;;;42.67;17.40;;;;;;;;;;5008269;28;20661;-70
2024/01/20 09:39:02;;;;;;;37.67;17.40;;;;;;;;;;5022631;28;20178;-71
2024/01/20 09:41:27;;;;;;;33.33;16.33;;;;;;;;;;5009503;28;20198;-70
2024/01/20 09:43:52;;;;;;;37.93;17.33;;;;;;;;;;5030971;28;20174;-69
2024/01/20 09:46:18;;;;;;;34.37;16.70;;;;;;;;;;5013867;28;20297;-70
2024/01/20 09:48:44;;;;;;;30.03;15.17;;;;;;;;;;5029870;28;20615;-71
2024/01/20 09:51:10;;;;;;;35.80;15.67;;;;;;;;;;5030358;28;20222;-71
2024/01/20 09:53:35;;;;;;;34.47;16.43;;;;;;;;;;5030972;28;20228;-70
2024/01/20 09:56:00;;;;;;;36.87;17.03;;;;;;;;;;5022119;28;20281;-71
2024/01/20 09:58:26;;;;;;;36.63;15.93;;;;;;;;;;5006703;28;20190;-70
2024/01/20 10:00:52;;;;;;;34.20;16.93;;;;;;;;;;5029993;28;20217;-69
2024/01/20 10:03:20;;;;;;;39.93;17.77;;;;;;;;;;5031971;28;20194;-71
2024/01/20 10:05:45;;;;;;;36.70;17.93;;;;;;;;;;5027062;28;20187;-70
2024/01/20 10:08:12;;;;;;;44.07;17.53;;;;;;;;;;5026740;28;20664;-70
2024/01/20 10:10:37;;;;;;;36.20;18.20;;;;;;;;;;5028867;28;20216;-72
2024/01/20 10:13:03;;;;;;;30.33;15.10;;;;;;;;;;5031972;28;20261;-70
2024/01/20 10:15:30;;;;;;;30.03;13.47;;;;;;;;;;5015629;28;20191;-70
2024/01/20 10:17:55;;;;;;;23.63;12.73;;;;;;;;;;5028346;28;20182;-71
2024/01/20 10:20:21;;;;;;;27.13;14.30;;;;;;;;;;5030883;28;20537;-70
2024/01/20 10:22:47;;;;;;;27.20;13.60;;;;;;;;;;5031940;28;20649;-70
2024/01/20 10:25:19;;;;;;;23.97;12.67;;;;;;;;;;5014603;28;20183;-71
2024/01/20 10:27:48;;;;;;;27.40;13.90;;;;;;;;;;5013727;28;20220;-71
2024/01/20 10:30:26;;;;;;;29.87;16.10;;;;;;;;;;5030474;28;20201;-70
2024/01/20 10:32:53;;;;;;;28.17;14.77;;;;;;;;;;5020599;28;20614;-70
2024/01/20 10:35:18;;;;;;;31.43;14.27;;;;;;;;;;5009143;28;20563;-71
2024/01/20 10:37:44;;;;;;;28.53;13.57;;;;;;;;;;5030801;28;20178;-71
2024/01/20 10:40:13;;;;;;;28.93;13.90;;;;;;;;;;5025589;28;20196;-71
2024/01/20 10:42:46;;;;;;;28.97;14.63;;;;;;;;;;5029585;28;20198;-71
2024/01/20 10:45:18;;;;;;;27.63;14.30;;;;;;;;;;5013153;28;20197;-71
2024/01/20 10:48:04;;;;;;;26.27;14.47;;;;;;;;;;5012685;28;20664;-70
2024/01/20 10:50:29;;;;;;;28.80;13.53;;;;;;;;;;5025195;28;20223;-72
2024/01/20 10:52:55;;;;;;;28.13;14.90;;;;;;;;;;5029728;28;20246;-72
2024/01/20 10:55:20;;;;;;;35.67;14.87;;;;;;;;;;5031418;28;20253;-73
2024/01/20 10:57:46;;;;;;;28.47;15.50;;;;;;;;;;5030627;28;20174;-69
2024/01/20 11:00:12;;;;;;;30.80;14.60;;;;;;;;;;5013229;28;20186;-71
2024/01/20 11:02:38;;;;;;;27.63;14.00;;;;;;;;;;5031760;28;20300;-72
2024/01/20 11:05:16;;;;;;;31.40;15.27;;;;;;;;;;5031994;28;20301;-72
2024/01/20 11:07:41;;;;;;;26.57;14.60;;;;;;;;;;5032483;28;20661;-71
2024/01/20 11:10:07;;;;;;;27.67;14.10;;;;;;;;;;5026319;28;20208;-72
2024/01/20 11:12:32;;;;;;;25.57;13.17;;;;;;;;;;5028210;28;20219;-72
2024/01/20 11:14:57;;;;;;;28.63;14.70;;;;;;;;;;5029194;28;20175;-70
2024/01/20 11:17:23;;;;;;;24.10;13.70;;;;;;;;;;5034535;28;20490;-71
2024/01/20 11:19:50;;;;;;;27.40;14.13;;;;;;;;;;5030062;28;20280;-70
2024/01/20 11:22:31;;;;;;;25.03;13.17;;;;;;;;;;5029864;28;20225;-72
2024/01/20 11:24:56;;;;;;;26.50;13.90;;;;;;;;;;5030249;28;20201;-71
2024/01/20 11:27:21;;;;;;;24.57;13.37;;;;;;;;;;5014886;28;20626;-72
2024/01/20 11:29:47;;;;;;;24.37;13.57;;;;;;;;;;5022745;28;20194;-71
2024/01/20 11:32:12;;;;;;;26.27;14.33;;;;;;;;;;5027247;28;20248;-72
2024/01/20 11:34:37;;;;;;;27.00;14.33;;;;;;;;;;5030438;28;20228;-72
2024/01/20 11:37:02;;;;;;;28.33;13.33;;;;;;;;;;5028628;28;20210;-71
2024/01/20 11:39:28;;;;;;;24.17;12.40;;;;;;;;;;5010355;28;20605;-72
2024/01/20 11:42:00;;;;;;;23.97;13.57;;;;;;;;;;5030734;28;20662;-71
2024/01/20 11:44:27;;;;;;;25.37;12.40;;;;;;;;;;5030475;28;20253;-72
2024/01/20 11:46:53;;;;;;;23.03;11.67;;;;;;;;;;5030095;28;20713;-70
2024/01/20 11:49:18;;;;;;;28.70;10.93;;;;;;;;;;5029969;28;20225;-72
2024/01/20 11:51:43;;;;;;;23.47;12.43;;;;;;;;;;5011796;28;20301;-71
2024/01/20 11:54:08;;;;;;;24.13;12.10;;;;;;;;;;5026538;28;20213;-72
2024/01/20 11:56:34;;;;;;;23.77;12.27;;;;;;;;;;5013674;28;20198;-70
2024/01/20 11:58:59;;;;;;;23.73;12.10;;;;;;;;;;5026729;28;20206;-71
2024/01/20 12:01:24;;;;;;;23.17;12.70;;;;;;;;;;5008232;28;20194;-71
2024/01/20 12:03:49;;;;;;;21.30;12.17;;;;;;;;;;5032415;28;20185;-71
2024/01/20 12:06:15;;;;;;;21.77;12.43;;;;;;;;;;5009869;28;20186;-70
2024/01/20 12:08:44;;;;;;;19.97;11.53;;;;;;;;;;5029410;28;20645;-70
2024/01/20 12:11:18;;;;;;;21.13;11.93;;;;;;;;;;5006987;28;20221;-71
2024/01/20 12:13:44;;;;;;;21.77;13.07;;;;;;;;;;5031261;28;20187;-71
2024/01/20 12:16:10;;;;;;;18.37;10.73;;;;;;;;;;5029608;28;20949;-71
2024/01/20 12:18:35;;;;;;;23.03;11.80;;;;;;;;;;5015411;28;20265;-70
2024/01/20 12:21:00;;;;;;;21.07;12.07;;;;;;;;;;5011664;28;20648;-71
2024/01/20 12:23:26;;;;;;;20.50;12.33;;;;;;;;;;5028399;28;20206;-71
2024/01/20 12:25:53;;;;;;;22.83;12.03;;;;;;;;;;5028199;28;20197;-70
2024/01/20 12:28:18;;;;;;;22.47;12.30;;;;;;;;;;5013762;28;20661;-72
2024/01/20 12:30:43;;;;;;;18.50;10.47;;;;;;;;;;5028521;28;20261;-69
2024/01/20 12:33:08;;;;;;;19.33;10.60;;;;;;;;;;5032658;28;20186;-71
2024/01/20 12:35:33;;;;;;;20.93;10.20;;;;;;;;;;5031223;28;20178;-70
2024/01/20 12:37:59;;;;;;;16.87;10.03;;;;;;;;;;5030087;28;20175;-71
2024/01/20 12:40:24;;;;;;;23.53;11.97;;;;;;;;;;5029268;28;20214;-72
2024/01/20 12:42:49;;;;;;;21.07;10.53;;;;;;;;;;5032510;28;20231;-69
2024/01/20 12:45:15;;;;;;;17.53;9.87;;;;;;;;;;5031825;28;20182;-70
2024/01/20 12:47:41;;;;;;;18.20;10.63;;;;;;;;;;5026831;28;20257;-71
2024/01/20 12:50:06;;;;;;;18.40;9.67;;;;;;;;;;5007198;28;20217;-71
2024/01/20 12:52:32;;;;;;;17.93;10.03;;;;;;;;;;5031451;28;20731;-71
2024/01/20 12:54:57;;;;;;;21.73;9.77;;;;;;;;;;5025150;28;20178;-71
2024/01/20 12:57:23;;;;;;;15.43;8.37;;;;;;;;;;5029339;28;20178;-71
2024/01/20 12:59:48;;;;;;;18.23;9.27;;;;;;;;;;5008576;28;20178;-71
2024/01/20 13:02:14;;;;;;;16.47;9.30;;;;;;;;;;5012872;28;20221;-71
2024/01/20 13:04:41;;;;;;;15.00;9.13;;;;;;;;;;5011193;28;20672;-71
2024/01/20 13:07:07;;;;;;;16.10;8.40;;;;;;;;;;5028891;28;20570;-70
2024/01/20 13:09:32;;;;;;;15.40;8.33;;;;;;;;;;5031178;28;20186;-71
2024/01/20 13:11:57;;;;;;;17.70;10.17;;;;;;;;;;5013346;28;20582;-70
2024/01/20 13:14:22;;;;;;;15.03;7.70;;;;;;;;;;5027858;28;20194;-71
2024/01/20 13:16:47;;;;;;;16.83;9.20;;;;;;;;;;5010864;28;20224;-71
2024/01/20 13:19:13;;;;;;;15.23;8.63;;;;;;;;;;5031623;28;20175;-70
2024/01/20 13:21:38;;;;;;;17.20;9.73;;;;;;;;;;5032715;28;20202;-69
2024/01/20 13:24:04;;;;;;;15.97;9.50;;;;;;;;;;5041513;28;20216;-70
2024/01/20 13:26:29;;;;;;;15.70;9.23;;;;;;;;;;5029743;28;20182;-70
2024/01/20 13:28:54;;;;;;;16.93;9.40;;;;;;;;;;5030605;28;20177;-71
2024/01/20 13:31:20;;;;;;;16.30;8.70;;;;;;;;;;5009613;28;20276;-71
2024/01/20 13:33:45;;;;;;;16.40;9.13;;;;;;;;;;5030234;28;20178;-69
2024/01/20 13:36:10;;;;;;;17.80;9.33;;;;;;;;;;5018261;28;20209;-70
2024/01/20 13:38:37;;;;;;;17.47;8.57;;;;;;;;;;5028256;28;20202;-72
2024/01/20 13:41:04;;;;;;;14.43;8.60;;;;;;;;;;5029219;28;20519;-70
2024/01/20 13:43:29;;;;;;;15.57;8.20;;;;;;;;;;5025269;28;20174;-71
2024/01/20 13:45:54;;;;;;;16.13;8.83;;;;;;;;;;5012686;28;20178;-70
2024/01/20 13:48:19;;;;;;;13.80;8.40;;;;;;;;;;5027818;28;20320;-71
2024/01/20 13:50:44;;;;;;;16.43;8.93;;;;;;;;;;5029406;28;20213;-70
2024/01/20 13:53:09;;;;;;;14.30;8.47;;;;;;;;;;5031851;28;20193;-71
2024/01/20 13:55:35;;;;;;;15.13;9.17;;;;;;;;;;5029897;28;20230;-72
2024/01/20 13:58:00;;;;;;;16.03;9.07;;;;;;;;;;5028195;28;20915;-71
2024/01/20 14:00:25;;;;;;;15.43;8.83;;;;;;;;;;5029331;28;20665;-72
2024/01/20 14:02:51;;;;;;;15.77;8.77;;;;;;;;;;5028900;28;20186;-70
2024/01/20 14:05:16;;;;;;;16.87;8.60;;;;;;;;;;5027040;28;20661;-71
2024/01/20 14:07:41;;;;;;;15.40;9.13;;;;;;;;;;5024073;28;20194;-71